Time;durP1;ratioP1;P1;durP2;ratioP2;P2;SDS_P1;SDS_P2;PMS_P1;PMS_P2;Temp;Humidity;BMP_temperature;BMP_pressure;BME280_temperature;BME280_humidity;BME280_pressure;Samples;Min_cycle;Max_cycle;Signal;HPM_P1;HPM_P2
2021/01/19 00:00:08;;;;;;;0.88;0.85;;;-4.10;99.90;;;;;;5030621;28;20269;-67
2021/01/19 00:02:34;;;;;;;0.88;0.88;;;-4.10;99.90;;;;;;5028585;28;20181;-67
2021/01/19 00:05:00;;;;;;;0.52;0.52;;;-4.00;99.90;;;;;;5030299;28;20599;-67
2021/01/19 00:07:29;;;;;;;1.17;1.17;;;-4.00;99.90;;;;;;5025598;28;20209;-70
2021/01/19 00:09:56;;;;;;;0.38;0.38;;;-4.10;99.90;;;;;;5010687;28;20198;-67
2021/01/19 00:12:22;;;;;;;0.47;0.47;;;-4.00;99.90;;;;;;5020528;28;20229;-67
2021/01/19 00:14:48;;;;;;;1.17;1.17;;;-3.90;99.90;;;;;;5030109;28;20220;-67
2021/01/19 00:17:14;;;;;;;0.75;0.75;;;-3.90;99.90;;;;;;5028642;28;20258;-69
2021/01/19 00:19:40;;;;;;;2.25;2.15;;;-3.80;99.90;;;;;;5029278;28;20215;-66
2021/01/19 00:22:06;;;;;;;0.38;0.38;;;-3.90;99.90;;;;;;5029414;28;20155;-68
2021/01/19 00:24:32;;;;;;;2.28;2.17;;;-3.80;99.90;;;;;;5027912;28;20261;-69
2021/01/19 00:26:58;;;;;;;2.55;2.15;;;-3.70;99.90;;;;;;5027877;28;20170;-67
2021/01/19 00:29:24;;;;;;;0.90;0.90;;;-3.90;99.90;;;;;;5029161;28;20190;-67
2021/01/19 00:31:49;;;;;;;1.08;1.02;;;-4.00;99.90;;;;;;5029327;28;20177;-67
2021/01/19 00:34:16;;;;;;;1.60;1.55;;;-4.00;99.90;;;;;;5029092;28;20249;-69
2021/01/19 00:36:42;;;;;;;1.67;1.58;;;-3.80;99.90;;;;;;5028927;28;20208;-70
2021/01/19 00:39:08;;;;;;;0.82;0.82;;;-3.90;99.90;;;;;;5027530;28;20194;-69
2021/01/19 00:41:34;;;;;;;4.53;4.22;;;-4.00;99.90;;;;;;5028771;28;21218;-69
2021/01/19 00:44:00;;;;;;;0.20;0.20;;;-4.10;99.90;;;;;;5029110;28;20161;-69
2021/01/19 00:46:26;;;;;;;2.38;2.17;;;-4.10;99.90;;;;;;5027935;28;20217;-67
2021/01/19 00:48:52;;;;;;;1.50;1.40;;;-4.00;99.90;;;;;;5027596;28;20553;-67
2021/01/19 00:51:19;;;;;;;0.45;0.45;;;-3.90;99.90;;;;;;5028995;28;20222;-67
2021/01/19 00:53:45;;;;;;;4.20;3.83;;;-3.70;99.90;;;;;;5028838;28;20155;-67
2021/01/19 00:56:10;;;;;;;2.50;2.33;;;-3.60;99.90;;;;;;5028579;28;20201;-69
2021/01/19 00:58:36;;;;;;;0.45;0.45;;;-3.60;99.90;;;;;;5028687;28;20269;-69
2021/01/19 01:01:02;;;;;;;0.10;0.10;;;-3.60;99.90;;;;;;5028448;28;20194;-66
2021/01/19 01:03:33;;;;;;;1.60;1.60;;;-3.70;99.90;;;;;;5027067;28;20189;-67
2021/01/19 01:06:00;;;;;;;1.38;1.38;;;-3.50;99.90;;;;;;5043178;28;20496;-67
2021/01/19 01:08:26;;;;;;;0.93;0.93;;;-3.50;99.90;;;;;;5022953;28;20625;-67
2021/01/19 01:10:52;;;;;;;1.45;1.40;;;-3.60;99.90;;;;;;5023882;28;20202;-66
2021/01/19 01:13:20;;;;;;;0.20;0.20;;;-3.50;99.90;;;;;;5008159;28;20194;-67
2021/01/19 01:15:46;;;;;;;0.90;0.90;;;-3.50;99.90;;;;;;5008921;28;20237;-67
2021/01/19 01:18:14;;;;;;;0.68;0.68;;;-3.60;99.90;;;;;;5014204;28;20277;-67
2021/01/19 01:20:41;;;;;;;1.50;1.50;;;-3.70;99.90;;;;;;5027085;28;20202;-67
2021/01/19 01:23:07;;;;;;;0.17;0.17;;;-3.60;99.90;;;;;;5028535;28;20154;-67
2021/01/19 01:25:33;;;;;;;1.67;1.58;;;-3.70;99.90;;;;;;5028376;28;20166;-67
2021/01/19 01:27:59;;;;;;;0.40;0.40;;;-3.80;99.90;;;;;;5028396;28;20265;-67
2021/01/19 01:30:25;;;;;;;0.22;0.22;;;-3.70;99.90;;;;;;5028077;28;20221;-67
2021/01/19 01:32:51;;;;;;;0.20;0.20;;;-3.70;99.90;;;;;;5027756;28;20170;-67
2021/01/19 01:35:23;;;;;;;0.57;0.57;;;-3.70;99.90;;;;;;5026969;28;20174;-67
2021/01/19 01:37:51;;;;;;;0.32;0.32;;;-3.80;99.90;;;;;;5028156;28;20197;-66
2021/01/19 01:40:19;;;;;;;0.60;0.60;;;-3.80;99.90;;;;;;5028171;28;20194;-66
2021/01/19 01:42:45;;;;;;;0.55;0.55;;;-3.60;99.90;;;;;;5028032;28;20213;-66
2021/01/19 01:45:12;;;;;;;1.55;1.45;;;-3.60;99.90;;;;;;5028277;28;20549;-66
2021/01/19 01:47:39;;;;;;;0.30;0.30;;;-3.50;99.90;;;;;;5028062;28;20241;-66
2021/01/19 01:50:08;;;;;;;2.35;2.25;;;-3.50;99.90;;;;;;5028221;28;20162;-66
2021/01/19 01:52:34;;;;;;;0.90;0.90;;;-3.60;99.90;;;;;;5027870;28;20178;-66
2021/01/19 01:55:01;;;;;;;1.88;1.77;;;-3.60;99.90;;;;;;5027746;28;20189;-67
2021/01/19 01:57:27;;;;;;;0.80;0.80;;;-3.70;99.90;;;;;;5027984;28;20197;-66
2021/01/19 01:59:59;;;;;;;0.90;0.90;;;-3.60;99.90;;;;;;5028061;28;20154;-67
2021/01/19 02:02:26;;;;;;;2.55;2.35;;;-3.70;99.90;;;;;;5028010;28;20154;-66
2021/01/19 02:04:51;;;;;;;1.98;1.88;;;-3.50;99.90;;;;;;5027944;28;20154;-66
2021/01/19 02:07:42;;;;;;;1.08;1.08;;;-3.60;99.90;;;;;;5027907;28;20262;-66
2021/01/19 02:10:34;;;;;;;0.43;0.43;;;-3.50;99.90;;;;;;5026623;28;20246;-66
2021/01/19 02:13:16;;;;;;;0.93;0.93;;;-3.40;99.90;;;;;;5027802;28;20208;-66
2021/01/19 02:15:50;;;;;;;1.33;1.33;;;-3.40;99.90;;;;;;5044206;28;20169;-66
2021/01/19 02:18:19;;;;;;;1.60;1.13;;;-3.50;99.90;;;;;;5031609;28;20189;-66
2021/01/19 02:20:57;;;;;;;3.55;3.30;;;-3.60;99.90;;;;;;5031530;28;20170;-66
2021/01/19 02:24:10;;;;;;;1.17;1.17;;;-3.70;99.90;;;;;;5031361;28;20193;-67
2021/01/19 02:26:48;;;;;;;0.88;0.88;;;-3.90;99.90;;;;;;5009606;28;20186;-66
2021/01/19 02:29:48;;;;;;;1.17;1.17;;;-4.00;99.90;;;;;;5028714;28;20204;-66
2021/01/19 02:32:38;;;;;;;0.82;0.82;;;-4.00;99.90;;;;;;5031444;28;20285;-67
2021/01/19 02:35:11;;;;;;;0.60;0.60;;;-4.00;99.90;;;;;;5031238;28;20162;-67
2021/01/19 02:37:53;;;;;;;0.95;0.93;;;-4.10;99.90;;;;;;5031131;28;20614;-66
2021/01/19 02:40:22;;;;;;;0.40;0.40;;;-4.00;99.90;;;;;;5030652;28;20164;-68
2021/01/19 02:43:08;;;;;;;0.30;0.30;;;-4.10;99.90;;;;;;5031020;28;20230;-67
2021/01/19 02:45:33;;;;;;;0.32;0.32;;;-4.10;99.90;;;;;;5029899;28;20158;-66
2021/01/19 02:47:59;;;;;;;0.73;0.73;;;-4.00;99.90;;;;;;5031089;28;20190;-66
2021/01/19 02:50:26;;;;;;;2.78;2.60;;;-4.10;99.90;;;;;;5030956;28;20217;-67
2021/01/19 02:52:54;;;;;;;0.65;0.65;;;-4.30;99.90;;;;;;5030567;28;20201;-66
2021/01/19 02:55:20;;;;;;;3.05;2.85;;;-4.20;99.90;;;;;;5030916;28;20168;-67
2021/01/19 02:58:18;;;;;;;0.68;0.68;;;-4.10;99.90;;;;;;5030779;28;20190;-67
2021/01/19 03:01:05;;;;;;;0.15;0.15;;;-4.10;99.90;;;;;;5031341;28;20176;-66
2021/01/19 03:03:36;;;;;;;1.45;1.45;;;-4.20;99.90;;;;;;5030935;28;20193;-66
2021/01/19 03:06:12;;;;;;;0.17;0.17;;;-4.30;99.90;;;;;;5030957;28;20165;-67
2021/01/19 03:08:40;;;;;;;0.40;0.38;;;-4.30;99.90;;;;;;5030820;28;20189;-66
2021/01/19 03:11:10;;;;;;;3.83;3.33;;;-4.30;99.90;;;;;;5030979;28;20166;-66
2021/01/19 03:13:36;;;;;;;2.58;2.38;;;-4.30;99.90;;;;;;5030297;28;20190;-66
2021/01/19 03:16:14;;;;;;;0.57;0.57;;;-4.40;99.90;;;;;;5030754;28;20652;-66
2021/01/19 03:18:42;;;;;;;0.13;0.13;;;-4.40;99.90;;;;;;5029463;28;20170;-66
2021/01/19 03:21:09;;;;;;;0.40;0.40;;;-4.40;99.90;;;;;;5030727;28;20161;-66
2021/01/19 03:23:36;;;;;;;1.13;1.13;;;-4.70;99.90;;;;;;5030552;28;20190;-66
2021/01/19 03:26:04;;;;;;;0.28;0.28;;;-4.70;99.90;;;;;;5029169;28;20194;-66
2021/01/19 03:28:37;;;;;;;0.85;0.85;;;-4.70;99.90;;;;;;5030551;28;20222;-66
2021/01/19 03:31:04;;;;;;;0.95;0.95;;;-4.70;99.90;;;;;;5030525;28;20166;-66
2021/01/19 03:33:30;;;;;;;0.22;0.22;;;-4.70;99.90;;;;;;5029966;28;20197;-67
2021/01/19 03:35:57;;;;;;;0.55;0.55;;;-4.50;99.90;;;;;;5030139;28;20216;-67
2021/01/19 03:38:23;;;;;;;0.10;0.10;;;-4.40;99.90;;;;;;5028854;28;20217;-67
2021/01/19 03:40:49;;;;;;;0.30;0.30;;;-4.40;99.90;;;;;;5030337;28;20178;-68
2021/01/19 03:43:15;;;;;;;0.25;0.25;;;-4.30;99.90;;;;;;5029915;28;20252;-68
2021/01/19 03:45:41;;;;;;;1.23;1.23;;;-4.30;99.90;;;;;;5029974;28;20549;-68
2021/01/19 03:48:07;;;;;;;0.15;0.15;;;-4.30;99.90;;;;;;5030043;28;20177;-68
2021/01/19 03:50:33;;;;;;;0.80;0.80;;;-4.40;99.90;;;;;;5029973;28;20158;-68
2021/01/19 03:52:59;;;;;;;0.20;0.20;;;-4.40;99.90;;;;;;5029900;28;20193;-67
2021/01/19 03:55:27;;;;;;;0.20;0.20;;;-4.40;99.90;;;;;;5029574;28;20216;-67
2021/01/19 03:57:53;;;;;;;0.30;0.30;;;-4.50;99.90;;;;;;5029570;28;20186;-67
2021/01/19 04:00:19;;;;;;;0.43;0.43;;;-4.70;99.90;;;;;;5029650;28;20201;-68
2021/01/19 04:02:45;;;;;;;0.75;0.75;;;-4.80;99.90;;;;;;5029806;28;20201;-68
2021/01/19 04:05:11;;;;;;;0.20;0.20;;;-4.90;99.90;;;;;;5029874;28;20162;-67
2021/01/19 04:07:39;;;;;;;0.25;0.25;;;-5.00;99.90;;;;;;5029579;28;20182;-67
2021/01/19 04:10:13;;;;;;;0.80;0.80;;;-4.80;99.90;;;;;;5029626;28;20151;-66
2021/01/19 04:12:40;;;;;;;0.25;0.25;;;-4.80;99.90;;;;;;5029403;28;20182;-67
2021/01/19 04:15:08;;;;;;;0.30;0.30;;;-4.80;99.90;;;;;;5029603;28;20205;-67
2021/01/19 04:17:34;;;;;;;0.20;0.20;;;-4.80;99.90;;;;;;5029413;28;20186;-66
2021/01/19 04:20:00;;;;;;;0.20;0.20;;;-4.80;99.90;;;;;;5029609;28;20211;-67
2021/01/19 04:22:26;;;;;;;1.50;1.48;;;-4.80;99.90;;;;;;5029225;28;20162;-67
2021/01/19 04:24:53;;;;;;;3.83;1.90;;;-5.00;99.90;;;;;;5029320;28;20163;-67
2021/01/19 04:27:19;;;;;;;0.50;0.50;;;-4.90;99.90;;;;;;5029347;28;20193;-68
2021/01/19 04:29:46;;;;;;;1.05;1.02;;;-4.80;99.90;;;;;;5029224;28;20606;-67
2021/01/19 04:32:12;;;;;;;0.28;0.28;;;-4.70;99.90;;;;;;5029250;28;20169;-67
2021/01/19 04:34:38;;;;;;;3.03;2.75;;;-4.90;99.90;;;;;;5029177;28;20197;-67
2021/01/19 04:37:05;;;;;;;0.38;0.38;;;-4.90;99.90;;;;;;5027662;28;20198;-67
2021/01/19 04:39:30;;;;;;;0.15;0.15;;;-4.90;99.90;;;;;;5028555;28;20225;-67
2021/01/19 04:41:57;;;;;;;0.35;0.35;;;-4.80;99.90;;;;;;5028805;28;20218;-67
2021/01/19 04:44:25;;;;;;;0.25;0.25;;;-4.50;99.90;;;;;;5028861;28;20201;-66
2021/01/19 04:46:52;;;;;;;0.10;0.10;;;-4.50;99.90;;;;;;5028876;28;20328;-66
2021/01/19 04:49:18;;;;;;;0.10;0.10;;;-4.50;99.90;;;;;;5027361;28;20631;-67
2021/01/19 04:51:47;;;;;;;0.10;0.10;;;-4.60;99.90;;;;;;5028717;28;20170;-67
2021/01/19 04:54:18;;;;;;;0.45;0.45;;;-4.60;99.90;;;;;;5028768;28;20279;-68
2021/01/19 04:56:55;;;;;;;0.10;0.10;;;-4.60;99.90;;;;;;5028777;28;20190;-67
2021/01/19 04:59:24;;;;;;;0.10;0.10;;;-4.50;99.90;;;;;;5028500;28;20230;-68
2021/01/19 05:01:53;;;;;;;0.35;0.35;;;-4.50;99.90;;;;;;5027353;28;20205;-68
2021/01/19 05:04:38;;;;;;;0.20;0.20;;;-4.40;99.90;;;;;;5028835;28;20204;-67
2021/01/19 05:07:32;;;;;;;0.20;0.20;;;-4.30;99.90;;;;;;5028782;28;20193;-68
2021/01/19 05:10:13;;;;;;;0.20;0.20;;;-4.30;99.90;;;;;;5028146;28;20312;-66
2021/01/19 05:12:44;;;;;;;2.65;2.50;;;-4.30;99.90;;;;;;5027294;28;20296;-67
2021/01/19 05:15:14;;;;;;;0.10;0.10;;;-4.40;99.90;;;;;;5028474;28;20162;-67
2021/01/19 05:17:43;;;;;;;0.20;0.20;;;-4.50;99.90;;;;;;5028285;28;20194;-66
2021/01/19 05:20:10;;;;;;;1.80;1.70;;;-4.70;99.90;;;;;;5028389;28;20158;-67
2021/01/19 05:22:37;;;;;;;0.20;0.20;;;-4.70;99.90;;;;;;5028557;28;20198;-67
2021/01/19 05:25:04;;;;;;;0.20;0.20;;;-4.70;99.90;;;;;;5043586;28;20245;-67
2021/01/19 05:27:30;;;;;;;0.20;0.20;;;-4.80;99.90;;;;;;5028479;28;20185;-67
2021/01/19 05:30:09;;;;;;;1.38;1.10;;;-4.80;99.90;;;;;;5028362;28;20177;-67
2021/01/19 05:32:40;;;;;;;0.10;0.10;;;-4.80;99.90;;;;;;5028139;28;20185;-67
2021/01/19 05:35:19;;;;;;;0.13;0.13;;;-4.80;99.90;;;;;;5028322;28;20257;-67
2021/01/19 05:37:58;;;;;;;0.20;0.20;;;-4.90;99.90;;;;;;5027994;28;20186;-67
2021/01/19 05:40:30;;;;;;;0.20;0.20;;;-5.00;99.90;;;;;;5028065;28;20188;-67
2021/01/19 05:42:57;;;;;;;0.20;0.20;;;-4.80;99.90;;;;;;5027967;28;20245;-67
2021/01/19 05:45:23;;;;;;;0.40;0.40;;;-4.80;99.90;;;;;;5027509;28;20180;-67
2021/01/19 05:47:50;;;;;;;0.10;0.10;;;-4.90;99.90;;;;;;5026667;28;20241;-67
2021/01/19 05:50:16;;;;;;;0.30;0.30;;;-5.10;99.90;;;;;;5028661;28;20162;-67
2021/01/19 05:52:42;;;;;;;0.10;0.10;;;-5.10;99.90;;;;;;5031947;28;20198;-67
2021/01/19 05:55:09;;;;;;;0.30;0.30;;;-5.10;99.90;;;;;;5032141;28;20150;-67
2021/01/19 05:57:35;;;;;;;0.25;0.25;;;-5.20;99.90;;;;;;5030519;28;20202;-67
2021/01/19 06:00:04;;;;;;;0.30;0.30;;;-5.20;99.90;;;;;;5031569;28;20218;-67
2021/01/19 06:02:41;;;;;;;0.30;0.30;;;-5.30;99.90;;;;;;5031756;28;20166;-67
2021/01/19 06:05:09;;;;;;;0.20;0.20;;;-5.30;99.90;;;;;;5031903;28;20162;-67
2021/01/19 06:07:42;;;;;;;0.20;0.20;;;-5.40;99.90;;;;;;5030641;28;20170;-67
2021/01/19 06:10:21;;;;;;;0.63;0.63;;;-5.40;99.90;;;;;;5031778;28;20158;-67
2021/01/19 06:12:47;;;;;;;0.73;0.73;;;-5.40;99.90;;;;;;5030488;28;20198;-67
2021/01/19 06:15:13;;;;;;;0.20;0.20;;;-5.30;99.90;;;;;;5031522;28;20178;-68
2021/01/19 06:17:39;;;;;;;0.40;0.40;;;-5.40;99.90;;;;;;5030254;28;20632;-68
2021/01/19 06:20:07;;;;;;;0.15;0.15;;;-5.50;99.90;;;;;;5031272;28;20163;-68
2021/01/19 06:22:33;;;;;;;0.10;0.10;;;-5.50;99.90;;;;;;5031360;28;20154;-68
2021/01/19 06:25:03;;;;;;;0.38;0.38;;;-5.50;99.90;;;;;;5031337;28;20154;-68
2021/01/19 06:27:32;;;;;;;1.95;1.10;;;-5.50;99.90;;;;;;5031499;28;20596;-67
2021/01/19 06:30:00;;;;;;;0.20;0.20;;;-5.50;99.90;;;;;;5031119;28;20289;-68
2021/01/19 06:32:27;;;;;;;0.30;0.30;;;-5.30;99.90;;;;;;5031352;28;20289;-68
2021/01/19 06:34:54;;;;;;;0.20;0.20;;;-5.20;99.90;;;;;;5031402;28;20165;-68
2021/01/19 06:37:28;;;;;;;0.20;0.20;;;-5.20;99.90;;;;;;5031397;28;20214;-68
2021/01/19 06:39:57;;;;;;;1.05;1.05;;;-5.00;99.90;;;;;;5030196;28;20166;-67
2021/01/19 06:42:28;;;;;;;0.70;0.70;;;-5.10;99.90;;;;;;5030638;28;20265;-67
2021/01/19 06:44:59;;;;;;;0.20;0.20;;;-5.20;99.90;;;;;;5031130;28;20177;-68
2021/01/19 06:47:25;;;;;;;0.40;0.40;;;-5.20;99.90;;;;;;5031044;28;20162;-67
2021/01/19 06:49:53;;;;;;;0.30;0.30;;;-5.20;99.90;;;;;;5029817;28;20174;-67
2021/01/19 06:52:20;;;;;;;2.40;1.88;;;-5.20;99.90;;;;;;5030744;28;20193;-67
2021/01/19 06:54:49;;;;;;;0.45;0.45;;;-5.20;99.90;;;;;;5029460;28;20178;-67
2021/01/19 06:57:31;;;;;;;0.17;0.17;;;-5.10;99.90;;;;;;5030948;28;20221;-67
2021/01/19 07:00:23;;;;;;;3.53;3.33;;;-4.90;99.90;;;;;;5030946;28;20154;-67
2021/01/19 07:02:53;;;;;;;0.10;0.10;;;-4.80;99.90;;;;;;5030465;28;20244;-68
2021/01/19 07:05:23;;;;;;;0.28;0.28;;;-4.70;99.90;;;;;;5029449;28;20264;-67
2021/01/19 07:08:33;;;;;;;0.17;0.17;;;-4.50;99.90;;;;;;5029762;28;20260;-67
2021/01/19 07:11:11;;;;;;;0.10;0.10;;;-4.40;99.90;;;;;;5029699;28;20208;-67
2021/01/19 07:13:41;;;;;;;0.85;0.85;;;-4.40;99.90;;;;;;5029518;28;20162;-69
2021/01/19 07:16:07;;;;;;;1.05;1.05;;;-4.20;99.90;;;;;;5030529;28;20226;-68
2021/01/19 07:19:13;;;;;;;0.10;0.10;;;-4.10;99.90;;;;;;5030635;28;20161;-68
2021/01/19 07:21:57;;;;;;;0.10;0.10;;;-4.00;99.90;;;;;;5013314;28;20202;-68
2021/01/19 07:24:26;;;;;;;0.10;0.10;;;-3.90;99.90;;;;;;5030481;28;20158;-68
2021/01/19 07:26:55;;;;;;;0.20;0.20;;;-3.80;99.90;;;;;;5030475;28;20178;-68
2021/01/19 07:29:21;;;;;;;0.40;0.40;;;-3.60;99.90;;;;;;5030463;28;20189;-69
2021/01/19 07:31:47;;;;;;;0.20;0.20;;;-3.40;99.90;;;;;;5029981;28;20189;-67
2021/01/19 07:34:13;;;;;;;0.10;0.10;;;-3.30;99.90;;;;;;5030283;28;20154;-67
2021/01/19 07:36:39;;;;;;;0.38;0.38;;;-3.20;99.90;;;;;;5028592;28;20202;-67
2021/01/19 07:39:20;;;;;;;0.32;0.32;;;-3.30;99.90;;;;;;5030084;28;20162;-68
2021/01/19 07:41:46;;;;;;;0.68;0.68;;;-3.30;99.90;;;;;;5029836;28;20209;-68
2021/01/19 07:44:24;;;;;;;0.45;0.45;;;-3.10;99.90;;;;;;5029781;28;20193;-68
2021/01/19 07:46:50;;;;;;;0.22;0.22;;;-3.20;99.90;;;;;;5028770;28;20184;-67
2021/01/19 07:49:17;;;;;;;0.73;0.65;;;-3.10;99.90;;;;;;5028671;28;20245;-68
2021/01/19 07:51:47;;;;;;;0.50;0.50;;;-3.10;99.90;;;;;;5029349;28;20651;-67
2021/01/19 07:54:22;;;;;;;1.23;1.23;;;-2.90;99.90;;;;;;5028531;28;20201;-67
2021/01/19 07:56:49;;;;;;;1.27;1.27;;;-2.70;99.90;;;;;;5029262;28;20216;-69
2021/01/19 07:59:19;;;;;;;0.55;0.55;;;-2.60;99.90;;;;;;5029649;28;20193;-69
2021/01/19 08:01:56;;;;;;;0.15;0.15;;;-2.50;99.90;;;;;;5029622;28;20225;-70
2021/01/19 08:04:34;;;;;;;0.20;0.20;;;-2.20;99.90;;;;;;5029594;28;20249;-70
2021/01/19 08:07:19;;;;;;;1.15;1.15;;;-2.20;99.90;;;;;;5029761;28;20197;-69
2021/01/19 08:09:45;;;;;;;0.40;0.40;;;-2.00;99.90;;;;;;5029790;28;20164;-70
2021/01/19 08:12:14;;;;;;;0.20;0.20;;;-1.70;99.90;;;;;;5029879;28;20171;-69
2021/01/19 08:14:51;;;;;;;0.65;0.65;;;-1.70;99.90;;;;;;5028845;28;20158;-67
2021/01/19 08:17:17;;;;;;;0.20;0.20;;;-1.60;99.90;;;;;;5028255;28;20344;-70
2021/01/19 08:19:45;;;;;;;0.63;0.63;;;-1.60;99.90;;;;;;5029458;28;20162;-70
2021/01/19 08:22:12;;;;;;;0.30;0.30;;;-1.40;99.90;;;;;;5029096;28;20181;-69
2021/01/19 08:24:43;;;;;;;0.10;0.10;;;-1.20;99.90;;;;;;5029223;28;20507;-70
2021/01/19 08:27:09;;;;;;;0.10;0.10;;;-0.90;99.90;;;;;;5029263;28;20253;-69
2021/01/19 08:29:38;;;;;;;2.10;2.00;;;-0.70;99.90;;;;;;5028973;28;20158;-69
2021/01/19 08:32:06;;;;;;;0.10;0.10;;;-0.60;99.90;;;;;;5028487;28;20190;-70
2021/01/19 08:34:32;;;;;;;0.45;0.45;;;-0.30;99.90;;;;;;5029054;28;20224;-69
2021/01/19 08:37:01;;;;;;;0.10;0.10;;;0.20;99.90;;;;;;5026753;28;20230;-70
2021/01/19 08:39:27;;;;;;;0.28;0.28;;;0.70;99.90;;;;;;5028727;28;20167;-70
2021/01/19 08:41:54;;;;;;;0.30;0.30;;;1.10;99.90;;;;;;5028495;28;20277;-70
2021/01/19 08:44:21;;;;;;;0.38;0.38;;;1.50;99.90;;;;;;5029034;28;20181;-70
2021/01/19 08:46:49;;;;;;;0.17;0.17;;;1.90;99.90;;;;;;5028670;28;20194;-70
2021/01/19 08:49:17;;;;;;;1.13;1.13;;;2.00;99.90;;;;;;5028886;28;20213;-70
2021/01/19 08:51:48;;;;;;;0.82;0.82;;;2.20;99.90;;;;;;5029084;28;20201;-70
2021/01/19 08:54:14;;;;;;;1.13;1.13;;;2.30;99.90;;;;;;5028946;28;20161;-70
2021/01/19 08:56:42;;;;;;;0.50;0.50;;;2.20;99.90;;;;;;5028867;28;20220;-70
2021/01/19 08:59:12;;;;;;;0.55;0.55;;;2.30;99.90;;;;;;5029208;28;20158;-70
2021/01/19 09:01:54;;;;;;;1.15;1.13;;;2.20;99.90;;;;;;5028474;28;20196;-70
2021/01/19 09:04:27;;;;;;;1.17;1.17;;;2.60;99.90;;;;;;5027221;28;20697;-70
2021/01/19 09:07:03;;;;;;;0.30;0.30;;;2.70;99.90;;;;;;5028487;28;20220;-70
2021/01/19 09:09:29;;;;;;;0.30;0.30;;;2.80;99.90;;;;;;5026999;28;20162;-69
2021/01/19 09:11:55;;;;;;;1.20;1.20;;;2.60;99.90;;;;;;5027912;28;20229;-69
2021/01/19 09:14:25;;;;;;;1.88;1.77;;;2.30;99.90;;;;;;5026900;28;20225;-69
2021/01/19 09:16:53;;;;;;;1.85;1.73;;;2.10;99.90;;;;;;5027813;28;20241;-70
2021/01/19 09:19:19;;;;;;;2.63;1.30;;;1.70;99.90;;;;;;5028320;28;20169;-71
2021/01/19 09:21:45;;;;;;;1.75;1.70;;;1.60;99.90;;;;;;5028353;28;20244;-71
2021/01/19 09:24:13;;;;;;;0.77;0.77;;;1.80;99.90;;;;;;5028220;28;20154;-71
2021/01/19 09:26:56;;;;;;;1.35;1.25;;;1.80;99.90;;;;;;5027990;28;20186;-73
2021/01/19 09:29:33;;;;;;;1.40;1.40;;;2.00;99.90;;;;;;5028330;28;20158;-73
2021/01/19 09:32:00;;;;;;;1.30;1.20;;;2.10;99.90;;;;;;5026603;28;20181;-74
2021/01/19 09:34:27;;;;;;;5.15;2.53;;;2.20;99.90;;;;;;5028179;28;20602;-73
2021/01/19 09:36:54;;;;;;;0.65;0.65;;;2.40;99.90;;;;;;5026543;28;20313;-73
2021/01/19 09:39:27;;;;;;;0.68;0.68;;;2.80;99.90;;;;;;5028049;28;20168;-74
2021/01/19 09:41:54;;;;;;;0.63;0.63;;;3.00;99.90;;;;;;5027950;28;20273;-74
2021/01/19 09:44:21;;;;;;;0.70;0.70;;;3.10;99.90;;;;;;5028095;28;20173;-74
2021/01/19 09:46:52;;;;;;;0.77;0.77;;;3.20;99.90;;;;;;5026600;28;20197;-74
2021/01/19 09:49:21;;;;;;;1.05;1.05;;;3.60;99.90;;;;;;5027014;28;20201;-75
2021/01/19 09:51:47;;;;;;;0.57;0.57;;;3.50;99.90;;;;;;5027720;28;20176;-74
2021/01/19 09:54:13;;;;;;;0.75;0.75;;;3.70;99.90;;;;;;5027934;28;20201;-75
2021/01/19 09:56:38;;;;;;;0.20;0.20;;;3.80;99.90;;;;;;5028081;28;20210;-76
2021/01/19 09:59:06;;;;;;;0.60;0.60;;;3.70;99.90;;;;;;5026508;28;20281;-76
2021/01/19 10:01:33;;;;;;;0.55;0.55;;;3.90;99.90;;;;;;5026845;28;20202;-76
2021/01/19 10:03:59;;;;;;;0.20;0.20;;;4.00;99.90;;;;;;5037165;28;20701;-76
2021/01/19 10:06:26;;;;;;;0.22;0.22;;;4.60;99.90;;;;;;5027379;28;20203;-76
2021/01/19 10:08:56;;;;;;;0.10;0.10;;;4.90;99.90;;;;;;5026927;28;20181;-76
2021/01/19 10:11:34;;;;;;;0.10;0.10;;;4.70;99.90;;;;;;5040344;28;20181;-76
2021/01/19 10:14:18;;;;;;;0.22;0.22;;;4.40;99.90;;;;;;5047537;28;20162;-76
2021/01/19 10:16:48;;;;;;;0.70;0.70;;;4.20;99.90;;;;;;5048208;28;20288;-76
2021/01/19 10:19:27;;;;;;;0.13;0.13;;;4.20;99.90;;;;;;5038152;28;20236;-76
2021/01/19 10:21:55;;;;;;;7.43;0.85;;;4.30;99.90;;;;;;5043364;28;20201;-76
2021/01/19 10:24:25;;;;;;;0.55;0.55;;;4.40;99.90;;;;;;5040648;28;20619;-76
2021/01/19 10:27:06;;;;;;;0.40;0.40;;;4.80;99.90;;;;;;5046831;28;20236;-76
2021/01/19 10:29:43;;;;;;;0.35;0.35;;;5.30;99.90;;;;;;5047694;28;20253;-76
2021/01/19 10:32:13;;;;;;;2.60;1.85;;;5.80;99.90;;;;;;5047540;28;20161;-77
2021/01/19 10:34:50;;;;;;;1.05;0.98;;;6.10;99.90;;;;;;5046137;28;20204;-76
2021/01/19 10:37:17;;;;;;;0.68;0.68;;;6.30;99.90;;;;;;5032771;28;20198;-76
2021/01/19 10:39:58;;;;;;;0.20;0.20;;;6.30;99.90;;;;;;5032053;28;20165;-76
2021/01/19 10:42:29;;;;;;;2.15;2.05;;;5.80;99.90;;;;;;5046246;28;20213;-77
2021/01/19 10:45:04;;;;;;;2.30;1.90;;;6.70;99.90;;;;;;5028000;28;20188;-77
2021/01/19 10:47:43;;;;;;;2.13;1.42;;;7.40;99.90;;;;;;5011606;28;20204;-76
2021/01/19 10:50:15;;;;;;;0.38;0.38;;;7.60;99.90;;;;;;5010105;28;20171;-77
2021/01/19 10:52:41;;;;;;;1.77;1.67;;;7.90;99.90;;;;;;5010053;28;20221;-76
2021/01/19 10:55:08;;;;;;;2.33;2.05;;;7.50;99.90;;;;;;5011378;28;20214;-76
2021/01/19 10:57:35;;;;;;;4.10;2.03;;;6.70;99.90;;;;;;5013094;28;20245;-76
2021/01/19 11:00:02;;;;;;;2.28;1.45;;;6.20;99.90;;;;;;5029494;28;20181;-77
2021/01/19 11:02:30;;;;;;;1.13;1.10;;;6.20;99.90;;;;;;5029674;28;20254;-75
2021/01/19 11:04:56;;;;;;;0.77;0.77;;;6.60;99.90;;;;;;5030957;28;20159;-75
2021/01/19 11:07:22;;;;;;;0.38;0.38;;;6.70;99.90;;;;;;5032793;28;20222;-75
2021/01/19 11:09:48;;;;;;;1.20;1.10;;;6.60;99.90;;;;;;5049209;28;20169;-76
2021/01/19 11:12:17;;;;;;;1.73;0.57;;;6.50;99.90;;;;;;5037272;28;20170;-76
2021/01/19 11:14:43;;;;;;;0.90;0.90;;;6.00;99.90;;;;;;5025642;28;20174;-76
2021/01/19 11:17:09;;;;;;;0.20;0.20;;;5.60;99.90;;;;;;5010872;28;20254;-76
2021/01/19 11:19:35;;;;;;;0.68;0.68;;;5.30;99.90;;;;;;5017420;28;20525;-77
2021/01/19 11:22:01;;;;;;;0.10;0.10;;;5.30;99.90;;;;;;5030582;28;20178;-75
2021/01/19 11:24:27;;;;;;;0.10;0.10;;;5.20;99.90;;;;;;5045591;28;20173;-76
2021/01/19 11:26:53;;;;;;;0.40;0.40;;;5.30;99.90;;;;;;5045850;28;20217;-75
2021/01/19 11:29:19;;;;;;;0.95;0.75;;;5.40;99.90;;;;;;5045480;28;20169;-76
2021/01/19 11:31:44;;;;;;;0.65;0.65;;;5.10;99.90;;;;;;5030349;28;20627;-76
2021/01/19 11:34:12;;;;;;;1.02;1.00;;;4.70;99.90;;;;;;5030427;28;20198;-76
2021/01/19 11:36:39;;;;;;;0.20;0.20;;;4.40;99.90;;;;;;5028844;28;20224;-75
2021/01/19 11:39:07;;;;;;;3.95;3.70;;;4.30;99.90;;;;;;5030266;28;20158;-76
2021/01/19 11:41:36;;;;;;;0.82;0.82;;;4.20;99.90;;;;;;5029845;28;20155;-76
2021/01/19 11:44:03;;;;;;;0.40;0.40;;;4.10;99.90;;;;;;5028703;28;20185;-77
2021/01/19 11:46:30;;;;;;;0.30;0.30;;;3.90;99.90;;;;;;5029778;28;20190;-75
2021/01/19 11:48:58;;;;;;;0.30;0.30;;;3.80;99.90;;;;;;5028593;28;20522;-76
2021/01/19 11:51:26;;;;;;;1.52;1.42;;;3.50;99.90;;;;;;5028519;28;20170;-77
2021/01/19 11:53:55;;;;;;;0.20;0.20;;;3.40;99.90;;;;;;5029080;28;20185;-78
2021/01/19 11:56:32;;;;;;;1.40;1.35;;;3.40;99.90;;;;;;5029561;28;20216;-78
2021/01/19 11:58:58;;;;;;;2.28;2.08;;;3.30;99.90;;;;;;5020852;28;20265;-77
2021/01/19 12:01:24;;;;;;;1.88;1.77;;;3.40;99.90;;;;;;5008646;28;20162;-76
2021/01/19 12:03:50;;;;;;;5.95;3.88;;;3.30;99.90;;;;;;5009088;28;20427;-75
2021/01/19 12:06:15;;;;;;;0.82;0.82;;;3.20;99.90;;;;;;5009876;28;20218;-74
2021/01/19 12:08:45;;;;;;;0.70;0.70;;;3.20;99.90;;;;;;5026710;28;20186;-76
2021/01/19 12:11:11;;;;;;;0.95;0.95;;;3.20;99.90;;;;;;5024279;28;20171;-76
2021/01/19 12:13:38;;;;;;;0.40;0.40;;;3.20;99.90;;;;;;5020580;28;20216;-75
2021/01/19 12:16:07;;;;;;;1.70;1.55;;;3.20;99.90;;;;;;5029336;28;20194;-74
2021/01/19 12:18:35;;;;;;;1.17;1.17;;;3.40;99.90;;;;;;5044465;28;20181;-74
2021/01/19 12:21:02;;;;;;;0.30;0.30;;;3.40;99.90;;;;;;5044156;28;20178;-76
2021/01/19 12:23:28;;;;;;;0.85;0.85;;;3.30;99.90;;;;;;5027861;28;20178;-76
2021/01/19 12:25:58;;;;;;;0.63;0.63;;;3.40;99.90;;;;;;5029206;28;20316;-76
2021/01/19 12:28:25;;;;;;;0.30;0.30;;;3.30;99.90;;;;;;5027971;28;20320;-76
2021/01/19 12:30:54;;;;;;;0.40;0.40;;;3.20;99.90;;;;;;5029212;28;20603;-74
2021/01/19 12:33:21;;;;;;;2.83;1.05;;;3.20;99.90;;;;;;5029089;28;20593;-75
2021/01/19 12:35:48;;;;;;;0.80;0.80;;;3.40;99.90;;;;;;5029075;28;20241;-75
2021/01/19 12:38:15;;;;;;;0.40;0.40;;;3.50;99.90;;;;;;5029142;28;20194;-75
2021/01/19 12:40:41;;;;;;;0.50;0.50;;;3.70;99.90;;;;;;5028904;28;20177;-75
2021/01/19 12:43:08;;;;;;;3.63;1.75;;;3.80;99.90;;;;;;5028724;28;20221;-75
2021/01/19 12:45:35;;;;;;;0.73;0.73;;;3.70;99.90;;;;;;5027680;28;20220;-74
2021/01/19 12:48:01;;;;;;;0.52;0.50;;;3.80;99.90;;;;;;5027714;28;20186;-75
2021/01/19 12:50:27;;;;;;;0.15;0.15;;;3.90;99.90;;;;;;5027646;28;20174;-75
2021/01/19 12:52:54;;;;;;;0.30;0.30;;;4.00;99.90;;;;;;5028739;28;20169;-74
2021/01/19 12:55:20;;;;;;;0.20;0.20;;;4.10;99.90;;;;;;5026462;28;20182;-74
2021/01/19 12:57:46;;;;;;;0.47;0.47;;;4.10;99.90;;;;;;5027239;28;20248;-74
2021/01/19 13:00:13;;;;;;;0.90;0.90;;;4.10;99.90;;;;;;5015482;28;20194;-75
2021/01/19 13:02:38;;;;;;;0.40;0.40;;;4.10;99.90;;;;;;5023759;28;20159;-74